Main page
METAR-TAF:

METAR-TAF

Airports :

Sault Ste. Marie Municipal Airport

Sault Ste. Marie, Michigan, United States

latitude: 46-28-46N, longitude: 084-21-26W, elevation: 689 ft

Current weather observation

The report was made 48 minutes ago, at 09:55 UTC
Wind 3 mph from the East/Northeast
Temperature 28°F
Humidity 80%
Pressure 29.99 in. Hg
Visibility: 10 miles
Clear sky

METAR: KANJ 220955Z AUTO 07003KT 10SM CLR M02/M05 A2999 RMK AO2 SLP160 T10221050

Time: 06:43 (10:43 UTC)


TAF: missing

Weather observations and forecasts of more than 4000 airports (METAR and TAF reports).

The available stations are represented by yellow and red dots on the map.

Hover mouse over dot to see the name of the station.

Then click to see weather observations and forecasts.

To change the map : click on the green buttons with a black cross to zoom in, on the green button with a dash to zoom out, or on the green arrows for adjacent maps.


METAR-TAF: